createdAt,value
2023-01-28T00:00:02.397Z,-0.2
2023-01-28T00:20:03.006Z,-0.4
2023-01-28T00:40:02.329Z,-0.6
2023-01-28T01:00:02.756Z,-0.7
2023-01-28T01:20:02.550Z,-0.9
2023-01-28T01:40:02.780Z,-1
2023-01-28T02:00:01.998Z,-1
2023-01-28T02:20:02.560Z,-0.8
2023-01-28T02:40:02.952Z,-0.7
2023-01-28T03:00:02.486Z,-0.4
2023-01-28T03:20:03.084Z,-0.3
2023-01-28T03:40:02.609Z,-0.3
2023-01-28T04:00:03.072Z,-0.1
2023-01-28T04:20:02.707Z,-0.1
2023-01-28T04:40:03.208Z,0.1
2023-01-28T05:00:02.591Z,0.1
2023-01-28T05:20:02.115Z,0.2
2023-01-28T05:40:02.517Z,0.2
2023-01-28T06:00:02.959Z,0.2
2023-01-28T06:20:03.109Z,0.2
2023-01-28T06:40:02.365Z,0.3
2023-01-28T07:00:02.758Z,0.5
2023-01-28T07:20:02.432Z,0.4
2023-01-28T07:40:02.847Z,0.5
2023-01-28T08:00:02.231Z,0.5
2023-01-28T08:20:02.822Z,0.7
2023-01-28T08:40:02.115Z,0.9
2023-01-28T09:00:02.648Z,1.1
2023-01-28T09:20:02.477Z,1.2
2023-01-28T09:40:02.910Z,1.2
2023-01-28T10:00:02.444Z,1.4
2023-01-28T10:20:03.064Z,1.6
2023-01-28T10:40:02.647Z,1.8
2023-01-28T11:00:03.264Z,1.9
2023-01-28T11:20:02.493Z,2.1
2023-01-28T11:40:03.032Z,2.2
2023-01-28T12:00:03.104Z,2.2
2023-01-28T12:20:02.587Z,2.3
2023-01-28T12:40:02.905Z,2.3
2023-01-28T13:00:02.873Z,2.3
2023-01-28T13:20:02.717Z,2.1
2023-01-28T13:40:03.393Z,2.1
2023-01-28T14:00:03.431Z,2.2
2023-01-28T14:20:02.650Z,2.2
2023-01-28T14:40:03.082Z,2
2023-01-28T15:00:02.754Z,2
2023-01-28T15:20:02.477Z,1.8
2023-01-28T15:40:03.968Z,1.7
2023-01-28T16:00:02.515Z,1.7
2023-01-28T16:20:02.814Z,1.7
2023-01-28T16:40:02.495Z,1.6
2023-01-28T17:00:03.359Z,1.6
2023-01-28T17:20:02.971Z,1.4
2023-01-28T17:40:02.530Z,1.4
2023-01-28T18:00:03.275Z,1.4
2023-01-28T18:20:02.544Z,1.3
2023-01-28T18:40:03.831Z,1.1
2023-01-28T19:00:02.473Z,0.9
2023-01-28T19:20:03.339Z,0.7
2023-01-28T19:40:02.848Z,0.7
2023-01-28T20:00:02.592Z,0.5
2023-01-28T20:20:02.267Z,0.6
2023-01-28T20:40:02.664Z,0.5
2023-01-28T21:00:03.254Z,0.3
2023-01-28T21:20:02.782Z,0.3
2023-01-28T21:40:02.298Z,0.3
2023-01-28T22:00:02.784Z,0.1
2023-01-28T22:20:02.576Z,0.1
2023-01-28T22:40:02.942Z,0
2023-01-28T23:00:02.487Z,-0.3
2023-01-28T23:20:02.955Z,-0.3
2023-01-28T23:40:02.306Z,-0.2
